createdAt,value
2019-02-19T00:02:11.804Z,68.18
2019-02-19T00:03:04.013Z,68.18
2019-02-19T00:03:56.654Z,68.08
2019-02-19T00:04:49.005Z,67.8
2019-02-19T00:05:41.225Z,67.32
2019-02-19T00:06:33.664Z,68.08
2019-02-19T00:07:26.161Z,68.37
2019-02-19T00:08:18.444Z,68.18
2019-02-19T00:09:11.128Z,67.32
2019-02-19T00:10:03.275Z,67.51
2019-02-19T00:10:55.643Z,67.51
2019-02-19T00:11:48.302Z,68.08
2019-02-19T00:12:40.630Z,67.89
2019-02-19T00:13:33.339Z,67.8
2019-02-19T00:14:25.550Z,67.51
2019-02-19T00:15:18.050Z,67.89
2019-02-19T00:16:10.444Z,68.08
2019-02-19T00:17:03.273Z,68.18
2019-02-19T00:17:55.648Z,67.61
2019-02-19T00:18:47.914Z,67.7
2019-02-19T00:19:40.237Z,67.61
2019-02-19T00:20:32.599Z,67.8
2019-02-19T00:21:24.551Z,67.41
2019-02-19T00:22:16.676Z,67.41
2019-02-19T00:23:09.571Z,67.61
2019-02-19T00:24:01.868Z,68.18
2019-02-19T00:24:53.925Z,67.89
2019-02-19T00:25:46.172Z,67.89
2019-02-19T00:26:38.495Z,67.61
2019-02-19T00:27:31.128Z,67.41
2019-02-19T00:28:23.514Z,67.22
2019-02-19T00:29:17.703Z,67.7
2019-02-19T00:30:10.336Z,67.7
2019-02-19T00:31:02.780Z,67.41
2019-02-19T00:31:55.118Z,67.32
2019-02-19T00:32:47.261Z,68.18
2019-02-19T00:33:39.295Z,67.99
2019-02-19T00:34:31.596Z,69.32
2019-02-19T00:35:24.046Z,69.04
2019-02-19T00:36:15.938Z,68.75
2019-02-19T00:37:09.452Z,68.37
2019-02-19T00:38:01.759Z,67.99
2019-02-19T00:38:53.600Z,68.12
2019-02-19T00:39:47.031Z,68.12
2019-02-19T00:40:39.096Z,67.45
2019-02-19T00:41:31.646Z,66.75
2019-02-19T00:42:25.547Z,66.59
2019-02-19T00:43:17.613Z,66.97
2019-02-19T00:44:09.992Z,66.69
2019-02-19T00:45:02.393Z,66.18
2019-02-19T00:45:54.551Z,66.37
2019-02-19T00:46:47.077Z,66.66
2019-02-19T00:47:40.054Z,66.85
2019-02-19T00:48:32.271Z,67.03
2019-02-19T00:49:24.406Z,66.85
2019-02-19T00:50:17.574Z,67.51
2019-02-19T00:51:09.642Z,67.51
2019-02-19T00:52:02.266Z,68.08
2019-02-19T00:52:55.213Z,68.37
2019-02-19T00:53:47.643Z,68.75
2019-02-19T00:54:40.714Z,68.65
2019-02-19T00:55:33.544Z,68.65
2019-02-19T00:56:25.653Z,67.99
2019-02-19T00:57:18.020Z,68.75
2019-02-19T00:58:11.169Z,68.75
2019-02-19T00:59:03.148Z,68.27
2019-02-19T00:59:55.253Z,68.75
2019-02-19T01:00:47.689Z,68.84
2019-02-19T01:01:41.562Z,68.18
2019-02-19T01:02:33.396Z,68.18
2019-02-19T01:03:25.338Z,68.75
2019-02-19T01:04:17.516Z,67.99
2019-02-19T01:05:11.547Z,68.75
2019-02-19T01:06:03.630Z,67.99
2019-02-19T01:06:57.242Z,67.99
2019-02-19T01:07:49.491Z,67.61
2019-02-19T01:08:39.284Z,67.41
2019-02-19T01:09:19.793Z,67.41
2019-02-19T01:10:00.427Z,68.08
2019-02-19T01:10:40.897Z,67.99
2019-02-19T01:11:21.465Z,68.46
2019-02-19T01:12:02.003Z,68.08
2019-02-19T01:12:42.717Z,67.89
2019-02-19T01:13:22.896Z,68.08
2019-02-19T01:14:03.746Z,67.89
2019-02-19T01:14:44.358Z,67.99
2019-02-19T01:15:25.887Z,67.41
2019-02-19T01:16:06.272Z,67.99
2019-02-19T01:16:47.627Z,67.41
2019-02-19T01:17:28.749Z,67.26
2019-02-19T01:18:09.323Z,67.35
2019-02-19T01:18:49.972Z,67.45
2019-02-19T01:19:30.646Z,67.64
2019-02-19T01:20:11.571Z,67.07
2019-02-19T01:20:52.044Z,66.97
2019-02-19T01:21:34.773Z,66.69
2019-02-19T01:22:15.432Z,66.97
2019-02-19T01:22:55.962Z,66.88
2019-02-19T01:23:36.632Z,66.88
2019-02-19T01:24:16.848Z,66.88
2019-02-19T01:24:57.724Z,67.07
2019-02-19T01:25:38.558Z,66.31
2019-02-19T01:27:58.190Z,65.29
2019-02-19T01:28:42.985Z,64.81
2019-02-19T01:29:25.132Z,64.53
2019-02-19T01:30:05.801Z,64.81
2019-02-19T01:30:46.817Z,63.86
2019-02-19T01:31:27.110Z,63.13
2019-02-19T01:32:07.727Z,63.23
2019-02-19T01:32:48.407Z,63.23
2019-02-19T01:33:29.629Z,62.94
2019-02-19T01:34:10.749Z,62.27
2019-02-19T01:34:51.513Z,62.75
2019-02-19T01:35:34.267Z,62.65
2019-02-19T01:36:15.673Z,62.75
2019-02-19T01:36:56.092Z,62.27
2019-02-19T01:37:36.558Z,62.11
2019-02-19T01:39:40.946Z,61.35
2019-02-19T01:42:14.520Z,61.16
2019-02-19T01:43:06.551Z,61.16
2019-02-19T01:43:57.430Z,61.44
2019-02-19T01:44:47.761Z,61.25
2019-02-19T01:49:12.739Z,62.18
2019-02-19T01:50:05.219Z,62.46
2019-02-19T01:50:57.504Z,62.21
2019-02-19T01:53:54.478Z,62.3
2019-02-19T01:55:39.748Z,62.11
2019-02-19T01:56:34.575Z,62.4
2019-02-19T01:57:28.500Z,62.21
2019-02-19T01:58:26.662Z,62.97
2019-02-19T01:59:18.834Z,62.21
2019-02-19T02:00:11.215Z,62.78
2019-02-19T02:01:03.867Z,62.49
2019-02-19T02:02:11.416Z,62.68
2019-02-19T02:03:05.826Z,63.07
2019-02-19T02:04:14.253Z,63.45
2019-02-19T02:05:07.006Z,63.26
2019-02-19T02:06:00.349Z,63.92
2019-02-19T02:06:56.445Z,63.89
2019-02-19T02:07:49.503Z,63.99
2019-02-19T02:08:50.836Z,64.21
2019-02-19T02:09:43.693Z,64.5
2019-02-19T02:10:36.825Z,64.02
2019-02-19T02:11:31.302Z,63.45
2019-02-19T02:12:23.780Z,63.64
2019-02-19T02:13:18.972Z,63.64
2019-02-19T02:14:16.396Z,63.64
2019-02-19T02:15:10.052Z,63.64
2019-02-19T02:16:05.005Z,64.02
2019-02-19T02:16:57.284Z,64.21
2019-02-19T02:17:54.384Z,64.21
2019-02-19T02:18:46.388Z,64.31
2019-02-19T02:19:43.177Z,64.21
2019-02-19T02:20:36.426Z,64.88
2019-02-19T02:21:33.360Z,64.88
2019-02-19T02:22:28.485Z,64.78
2019-02-19T02:23:25.836Z,64.88
2019-02-19T02:24:23.950Z,64.97
2019-02-19T02:25:17.246Z,65.26
2019-02-19T02:26:09.221Z,65.45
2019-02-19T02:27:02.534Z,65.45
2019-02-19T02:27:55.079Z,64.97
2019-02-19T02:28:48.378Z,65.64
2019-02-19T02:29:41.682Z,65.45
2019-02-19T02:30:33.928Z,65.45
2019-02-19T02:32:58.703Z,65.17
2019-02-19T02:33:43.526Z,65.01
2019-02-19T02:34:24.336Z,64.91
2019-02-19T02:35:07.012Z,64.91
2019-02-19T02:35:47.337Z,65.26
2019-02-19T02:36:27.868Z,65.39
2019-02-19T02:37:09.079Z,65.39
2019-02-19T02:37:49.680Z,65.39
2019-02-19T02:38:30.714Z,66.06
2019-02-19T02:39:11.495Z,65.96
2019-02-19T02:39:53.018Z,66.22
2019-02-19T02:40:33.619Z,66.25
2019-02-19T02:41:14.815Z,66.15
2019-02-19T02:41:54.740Z,66.25
2019-02-19T02:42:35.743Z,66.98
2019-02-19T02:43:16.620Z,66.98
2019-02-19T02:43:57.085Z,66.92
2019-02-19T02:44:37.966Z,66.92
2019-02-19T02:45:20.241Z,67.21
2019-02-19T02:46:00.685Z,67.11
2019-02-19T02:46:42.198Z,67.11
2019-02-19T02:47:22.678Z,66.92
2019-02-19T02:48:03.425Z,67.21
2019-02-19T02:48:44.623Z,66.92
2019-02-19T02:49:25.962Z,66.92
2019-02-19T02:50:06.713Z,66.72
2019-02-19T02:50:47.164Z,66.82
2019-02-19T02:51:27.732Z,66.72
2019-02-19T02:52:08.071Z,67.87
2019-02-19T02:52:48.774Z,67.77
2019-02-19T02:53:29.215Z,67.83
2019-02-19T02:54:09.746Z,68.41
2019-02-19T02:54:50.365Z,68.16
2019-02-19T02:55:33.492Z,68.12
2019-02-19T02:56:13.872Z,68.16
2019-02-19T02:56:54.733Z,69.11
2019-02-19T02:57:34.846Z,68.44
2019-02-19T02:58:15.556Z,68.06
2019-02-19T02:58:56.085Z,68.26
2019-02-19T02:59:37.545Z,69.02
2019-02-19T03:00:17.772Z,68.92
2019-02-19T03:00:58.335Z,68.73
2019-02-19T03:01:39.285Z,68.06
2019-02-19T03:02:20.602Z,68.26
2019-02-19T03:03:00.830Z,68.35
2019-02-19T03:03:42.365Z,68.44
2019-02-19T03:04:22.703Z,69.02
2019-02-19T03:05:03.999Z,68.92
2019-02-19T03:05:45.326Z,69.02
2019-02-19T03:06:36.556Z,68.82
2019-02-19T03:07:18.316Z,69.11
2019-02-19T03:07:58.976Z,69.87
2019-02-19T03:08:39.563Z,69.21
2019-02-19T03:09:20.515Z,69.11
2019-02-19T03:10:01.922Z,69.87
2019-02-19T03:10:45.198Z,69.21
2019-02-19T03:11:25.694Z,69.21
2019-02-19T03:12:06.286Z,69.59
2019-02-19T03:12:46.664Z,69.87
2019-02-19T03:13:27.118Z,69.21
2019-02-19T03:14:07.581Z,69.4
2019-02-19T03:14:48.268Z,69.4
2019-02-19T03:15:28.785Z,68.92
2019-02-19T03:16:09.397Z,68.82
2019-02-19T03:16:49.769Z,68.82
2019-02-19T03:17:30.421Z,69.02
2019-02-19T03:18:10.682Z,69.78
2019-02-19T03:18:51.306Z,69.59
2019-02-19T03:19:31.639Z,69.59
2019-02-19T03:20:12.603Z,69.97
2019-02-19T03:20:53.294Z,69.4
2019-02-19T03:21:34.703Z,69.4
2019-02-19T03:22:16.154Z,69.68
2019-02-19T03:22:59.102Z,69.49
2019-02-19T03:23:41.634Z,69.21
2019-02-19T03:24:22.445Z,69.4
2019-02-19T03:25:03.678Z,69.21
2019-02-19T03:25:44.515Z,69.4
2019-02-19T03:26:25.600Z,69.11
2019-02-19T03:27:06.948Z,69.78
2019-02-19T03:27:48.568Z,69.97
2019-02-19T03:28:28.993Z,69.68
2019-02-19T03:29:09.375Z,69.87
2019-02-19T03:29:49.910Z,70.36
2019-02-19T03:30:30.453Z,69.97
2019-02-19T03:31:11.125Z,70.54
2019-02-19T03:31:51.663Z,71.02
2019-02-19T03:32:32.125Z,70.64
2019-02-19T03:33:14.403Z,70.64
2019-02-19T03:33:54.771Z,70.54
2019-02-19T03:34:36.893Z,70.64
2019-02-19T03:35:17.271Z,70.92
2019-02-19T03:35:57.977Z,70.54
2019-02-19T03:36:38.251Z,70.92
2019-02-19T03:37:18.808Z,70.73
2019-02-19T03:37:59.297Z,71.02
2019-02-19T03:38:39.712Z,70.54
2019-02-19T03:39:20.157Z,70.73
2019-02-19T03:40:02.775Z,71.02
2019-02-19T03:40:43.350Z,71.69
2019-02-19T03:41:23.811Z,70.83
2019-02-19T03:42:04.274Z,71.12
2019-02-19T03:42:45.901Z,71.5
2019-02-19T03:43:25.931Z,71.31
2019-02-19T03:44:07.906Z,71.12
2019-02-19T03:44:48.283Z,70.92
2019-02-19T03:45:28.851Z,70.92
2019-02-19T03:46:11.926Z,70.83
2019-02-19T03:46:49.577Z,70.73
2019-02-19T03:47:30.108Z,70.54
2019-02-19T03:48:10.672Z,70.45
2019-02-19T03:48:51.684Z,70.16
2019-02-19T03:49:32.216Z,70.16
2019-02-19T03:50:12.905Z,70.83
2019-02-19T03:50:53.116Z,70.73
2019-02-19T03:51:33.509Z,70.16
2019-02-19T03:52:13.956Z,70.45
2019-02-19T03:52:55.162Z,71.21
2019-02-19T03:53:35.521Z,71.69
2019-02-19T03:54:16.114Z,71.31
2019-02-19T03:54:56.587Z,71.31
2019-02-19T03:55:37.623Z,71.21
2019-02-19T03:56:17.993Z,71.31
2019-02-19T03:56:58.648Z,71.5
2019-02-19T03:57:39.197Z,71.21
2019-02-19T03:58:19.831Z,71.5
2019-02-19T03:59:01.633Z,71.98
2019-02-19T03:59:42.534Z,72.74
2019-02-19T04:00:23.263Z,72.55
2019-02-19T04:01:03.699Z,72.83
2019-02-19T04:01:44.161Z,72.55
2019-02-19T04:02:24.888Z,72.17
2019-02-19T04:03:07.194Z,72.26
2019-02-19T04:03:47.641Z,72.55
2019-02-19T04:04:28.745Z,72.36
2019-02-19T04:05:09.302Z,73.22
2019-02-19T04:05:49.861Z,73.03
2019-02-19T04:06:32.476Z,73.41
2019-02-19T04:07:12.398Z,73.12
2019-02-19T04:07:53.324Z,73.88
2019-02-19T04:08:34.233Z,74.08
2019-02-19T04:09:14.502Z,73.69
2019-02-19T04:09:54.825Z,73.88
2019-02-19T04:10:35.756Z,73.79
2019-02-19T04:11:16.252Z,74.46
2019-02-19T04:11:56.661Z,74.17
2019-02-19T04:12:36.987Z,74.74
2019-02-19T04:13:18.397Z,74.84
2019-02-19T04:13:58.711Z,74.55
2019-02-19T04:14:39.121Z,74.65
2019-02-19T04:15:19.649Z,74.65
2019-02-19T04:16:00.140Z,74.46
2019-02-19T04:16:40.545Z,74.55
2019-02-19T04:17:20.957Z,74.84
2019-02-19T04:18:02.195Z,75.51
2019-02-19T04:18:42.630Z,75.22
2019-02-19T04:19:23.073Z,75.32
2019-02-19T04:20:03.463Z,75.03
2019-02-19T04:20:43.892Z,75.42
2019-02-19T04:23:06.804Z,75.51
2019-02-19T04:23:59.711Z,75.79
2019-02-19T04:24:52.059Z,76.94
2019-02-19T04:25:44.299Z,76.65
2019-02-19T04:26:38.532Z,77.32
2019-02-19T04:27:31.950Z,78.37
2019-02-19T04:28:24.189Z,78.37
2019-02-19T05:06:04.978Z,96.03
2019-02-19T05:06:53.225Z,96.03
2019-02-19T05:07:33.456Z,95.94
2019-02-19T05:08:16.488Z,96.51
2019-02-19T05:08:56.934Z,95.17
2019-02-19T05:09:37.373Z,95.27
2019-02-19T05:10:18.107Z,96.22
2019-02-19T05:10:58.213Z,95.17
2019-02-19T05:11:38.947Z,96.32
2019-02-19T05:12:21.368Z,95.75
2019-02-19T05:13:02.530Z,96.03
2019-02-19T05:13:42.975Z,96.6
2019-02-19T05:14:26.134Z,97.08
2019-02-19T05:18:28.075Z,97.08
2019-02-19T05:19:20.504Z,96.8
2019-02-19T05:20:13.032Z,96.12
2019-02-19T05:21:06.085Z,96.03
2019-02-19T05:21:58.888Z,96.6
2019-02-19T05:22:51.078Z,96.22
2019-02-19T05:23:43.998Z,96.12
2019-02-19T05:24:36.680Z,95.27
2019-02-19T05:25:29.175Z,95.41
2019-02-19T05:26:21.270Z,95.17
2019-02-19T05:27:14.571Z,95.75
2019-02-19T05:28:12.509Z,96.03
2019-02-19T05:29:04.976Z,96.41
2019-02-19T05:29:57.628Z,96.32
2019-02-19T05:30:50.104Z,96.03
2019-02-19T05:31:43.701Z,95.75
2019-02-19T05:32:35.954Z,96.22
2019-02-19T05:33:29.509Z,95.03
2019-02-19T05:34:22.985Z,96.27
2019-02-19T05:35:16.479Z,95.41
2019-02-19T05:36:09.138Z,95.22
2019-02-19T05:37:02.174Z,95.41
2019-02-19T05:37:54.828Z,94.98
2019-02-19T05:38:47.507Z,95.17
2019-02-19T05:39:39.610Z,95.22
2019-02-19T05:40:31.848Z,95.32
2019-02-19T05:41:26.335Z,94.51
2019-02-19T05:42:18.750Z,95.32
2019-02-19T05:43:10.943Z,94.89
2019-02-19T05:44:03.008Z,94.65
2019-02-19T05:44:55.002Z,94.74
2019-02-19T05:45:47.870Z,93.6
2019-02-19T05:46:49.240Z,93.32
2019-02-19T05:47:33.366Z,92.93
2019-02-19T05:48:26.246Z,92.17
2019-02-19T05:49:18.424Z,92.55
2019-02-19T05:50:12.767Z,92.17
2019-02-19T05:51:04.995Z,91.69
2019-02-19T05:51:56.982Z,91.5
2019-02-19T05:52:50.228Z,91.6
2019-02-19T05:53:42.134Z,91.03
2019-02-19T05:54:34.417Z,90.84
2019-02-19T05:55:31.242Z,90.26
2019-02-19T05:56:23.551Z,90.64
2019-02-19T05:57:15.928Z,90.93
2019-02-19T05:58:08.513Z,91.22
2019-02-19T05:59:02.104Z,90.55
2019-02-19T05:59:54.981Z,91.41
2019-02-19T06:00:48.550Z,91.88
2019-02-19T06:02:44.212Z,92.08
2019-02-19T06:03:38.003Z,92.46
2019-02-19T06:04:30.614Z,92.65
2019-02-19T06:05:23.402Z,92.17
2019-02-19T06:06:16.282Z,92.08
2019-02-19T06:07:09.285Z,92.46
2019-02-19T06:08:01.095Z,91.6
2019-02-19T06:08:54.021Z,91.6
2019-02-19T06:09:46.077Z,90.84
2019-02-19T06:10:40.222Z,91.41
2019-02-19T06:11:33.220Z,91.31
2019-02-19T06:12:28.368Z,91.69
2019-02-19T06:13:20.716Z,90.74
2019-02-19T06:14:12.874Z,90.74
2019-02-19T06:15:05.038Z,91.41
2019-02-19T06:15:57.327Z,91.13
2019-02-19T06:16:58.236Z,90.93
2019-02-19T06:17:43.714Z,90.84
2019-02-19T06:18:42.484Z,91.31
2019-02-19T06:19:40.917Z,90.64
2019-02-19T06:20:33.463Z,90.64
2019-02-19T06:21:25.166Z,91.03
2019-02-19T06:22:18.041Z,91.03
2019-02-19T06:23:09.989Z,90.64
2019-02-19T06:24:02.707Z,89.79
2019-02-19T06:24:54.645Z,89.36
2019-02-19T06:25:45.863Z,89.93
2019-02-19T06:26:26.513Z,89.54
2019-02-19T06:27:07.004Z,89.36
2019-02-19T06:27:47.453Z,89.74
2019-02-19T06:28:28.014Z,89.64
2019-02-19T06:29:08.452Z,89.45
2019-02-19T06:29:48.831Z,88.59
2019-02-19T06:30:29.669Z,88.02
2019-02-19T06:31:10.015Z,88.59
2019-02-19T06:31:50.428Z,88.12
2019-02-19T06:32:31.100Z,87.64
2019-02-19T06:33:12.166Z,87.26
2019-02-19T06:33:53.034Z,86.78
2019-02-19T06:34:33.795Z,86.98
2019-02-19T06:35:14.334Z,86.88
2019-02-19T06:35:54.806Z,87.07
2019-02-19T06:36:35.161Z,86.98
2019-02-19T06:37:15.679Z,86.88
2019-02-19T06:37:56.054Z,87.16
2019-02-19T06:38:36.375Z,87.07
2019-02-19T06:39:20.539Z,87.35
2019-02-19T06:40:05.967Z,87.83
2019-02-19T06:40:47.650Z,87.93
2019-02-19T06:43:44.958Z,87.07
2019-02-19T06:44:41.373Z,86.49
2019-02-19T06:46:06.440Z,87.16
2019-02-19T06:46:58.155Z,86.69
2019-02-19T06:47:54.671Z,86.11
2019-02-19T06:48:51.562Z,86.21
2019-02-19T06:49:46.843Z,86.59
2019-02-19T06:50:46.821Z,86.98
2019-02-19T06:53:14.297Z,87.12
2019-02-19T06:54:46.532Z,87.74
2019-02-19T06:55:41.581Z,86.83
2019-02-19T06:56:35.221Z,87.4
2019-02-19T06:57:28.047Z,87.98
2019-02-19T06:58:23.947Z,87.88
2019-02-19T06:59:17.686Z,87.79
2019-02-19T07:00:10.913Z,88.07
2019-02-19T07:01:09.051Z,87.6
2019-02-19T07:02:01.465Z,88.55
2019-02-19T07:03:02.778Z,88.26
2019-02-19T07:03:55.382Z,89.31
2019-02-19T07:04:51.015Z,89.31
2019-02-19T07:05:45.180Z,88.84
2019-02-19T07:06:38.356Z,88.26
2019-02-19T07:07:37.363Z,88.07
2019-02-19T07:08:30.025Z,87.21
2019-02-19T07:09:22.405Z,87.6
2019-02-19T07:10:14.729Z,88.45
2019-02-19T07:11:08.137Z,87.98
2019-02-19T07:12:00.530Z,87.88
2019-02-19T07:14:16.700Z,87.79
2019-02-19T07:15:16.590Z,87.5
2019-02-19T07:16:09.331Z,87.88
2019-02-19T07:17:03.235Z,87.93
2019-02-19T07:17:57.137Z,87.93
2019-02-19T07:18:51.811Z,86.69
2019-02-19T07:19:43.956Z,87.74
2019-02-19T07:20:36.391Z,87.16
2019-02-19T07:21:29.380Z,86.88
2019-02-19T07:22:23.679Z,86.59
2019-02-19T07:23:16.238Z,84.97
2019-02-19T07:24:08.641Z,85.83
2019-02-19T07:25:01.289Z,85.54
2019-02-19T07:25:55.187Z,86.4
2019-02-19T07:26:48.821Z,86.69
2019-02-19T07:27:41.163Z,86.49
2019-02-19T07:28:34.942Z,85.73
2019-02-19T07:29:29.223Z,85.35
2019-02-19T07:30:23.498Z,85.45
2019-02-19T07:31:17.687Z,85.93
2019-02-19T07:32:12.598Z,86.78
2019-02-19T07:33:05.589Z,85.35
2019-02-19T07:34:00.796Z,85.73
2019-02-19T07:34:54.114Z,85.35
2019-02-19T07:35:48.530Z,84.97
2019-02-19T07:36:41.627Z,84.59
2019-02-19T07:37:35.282Z,84.49
2019-02-19T07:38:33.625Z,84.59
2019-02-19T07:39:28.019Z,84.4
2019-02-19T07:40:24.503Z,84.59
2019-02-19T07:41:18.330Z,83.44
2019-02-19T07:42:16.028Z,84.11
2019-02-19T07:43:10.375Z,84.49
2019-02-19T07:44:03.612Z,84.11
2019-02-19T07:45:00.937Z,84.49
2019-02-19T07:45:56.318Z,84.3
2019-02-19T07:46:49.149Z,85.06
2019-02-19T07:53:38.336Z,83.83
2019-02-19T07:54:36.234Z,84.01
2019-02-19T08:06:47.899Z,83.54
2019-02-19T08:11:22.022Z,83.01
2019-02-19T08:12:14.636Z,82.91
2019-02-19T08:13:07.552Z,82.91
2019-02-19T08:14:01.435Z,83.01
2019-02-19T08:14:59.490Z,82.97
2019-02-19T08:17:36.003Z,84.11
2019-02-19T08:25:34.387Z,81.58
2019-02-19T08:26:35.037Z,82.53
2019-02-19T08:27:51.235Z,83.48
2019-02-19T08:28:53.495Z,83.11
2019-02-19T08:29:53.175Z,83.67
2019-02-19T08:30:48.466Z,83.29
2019-02-19T08:31:44.653Z,83.01
2019-02-19T08:32:39.047Z,82.91
2019-02-19T08:33:33.721Z,82.63
2019-02-19T08:34:32.491Z,81.96
2019-02-19T08:35:30.577Z,81.58
2019-02-19T08:36:22.654Z,81.01
2019-02-19T08:37:15.454Z,81.2
2019-02-19T08:38:10.917Z,81.86
2019-02-19T08:39:03.577Z,81.96
2019-02-19T08:39:56.050Z,81.38
2019-02-19T08:40:50.818Z,82.24
2019-02-19T08:41:50.589Z,82.43
2019-02-19T09:12:38.602Z,76.69
2019-02-19T09:13:40.346Z,75.74
2019-02-19T09:14:35.990Z,74.69
2019-02-19T09:15:37.128Z,75.1
2019-02-19T09:16:33.135Z,73.58
2019-02-19T09:17:37.522Z,73.29
2019-02-19T09:18:35.189Z,73.39
2019-02-19T09:19:33.239Z,73.1
2019-02-19T09:20:36.752Z,72.56
2019-02-19T09:21:48.249Z,70.56
2019-02-19T09:23:44.033Z,69.82
2019-02-19T09:31:14.258Z,62.65
2019-02-19T09:31:56.167Z,62.77
2019-02-19T09:32:35.837Z,62.1
2019-02-19T09:33:17.280Z,62.2
2019-02-19T09:34:03.131Z,61.08
2019-02-19T09:34:44.889Z,57.82
2019-02-19T09:35:33.490Z,57.43
2019-02-19T09:36:20.745Z,57.95
2019-02-19T09:37:02.181Z,56.89
2019-02-19T09:37:44.159Z,55.77
2019-02-19T09:38:25.485Z,55.57
2019-02-19T09:39:05.947Z,55.77
2019-02-19T09:51:45.847Z,48.52
2019-02-19T09:52:31.770Z,48.43
2019-02-19T09:53:12.836Z,49.57
2019-02-19T09:53:53.401Z,49.67
2019-02-19T09:54:37.229Z,47.97
2019-02-19T09:55:18.032Z,47.1
2019-02-19T09:55:58.728Z,47
2019-02-19T09:56:39.218Z,47.1
2019-02-19T09:57:20.274Z,47.1
2019-02-19T09:58:01.792Z,45.95
2019-02-19T09:58:44.449Z,47.58
2019-02-19T09:59:27.307Z,46.33
2019-02-19T10:00:07.779Z,46.43
2019-02-19T10:00:48.525Z,46.62
2019-02-19T10:01:29.341Z,46.33
2019-02-19T10:02:12.380Z,45.87
2019-02-19T10:03:00.889Z,45.29
2019-02-19T10:03:43.745Z,45.76
2019-02-19T10:04:25.548Z,45.66
2019-02-19T10:05:07.435Z,45.39
2019-02-19T10:05:51.901Z,45.68
2019-02-19T10:06:35.567Z,45.59
2019-02-19T10:07:16.650Z,44.62
2019-02-19T10:07:59.845Z,44.14
2019-02-19T10:08:41.196Z,44.17
2019-02-19T10:09:23.475Z,45.42
2019-02-19T10:10:08.105Z,44.84
2019-02-19T10:10:53.699Z,44.84
2019-02-19T10:11:38.763Z,43.49
2019-02-19T10:12:19.772Z,43.68
2019-02-19T10:13:00.286Z,44.17
2019-02-19T10:13:40.970Z,43.68
2019-02-19T10:14:21.474Z,43.68
2019-02-19T10:15:02.589Z,43.8
2019-02-19T10:15:43.074Z,42.43
2019-02-19T10:16:25.819Z,42.84
2019-02-19T10:17:11.218Z,43.32
2019-02-19T10:22:23.091Z,42.12
2019-02-19T10:23:08.523Z,42.91
2019-02-19T10:23:51.961Z,41.18
2019-02-19T10:24:35.654Z,41.16
2019-02-19T10:25:28.292Z,41.16
2019-02-19T10:26:19.595Z,42.12
2019-02-19T10:27:00.506Z,42.14
2019-02-19T10:27:42.209Z,42.43
2019-02-19T10:28:25.280Z,42.24
2019-02-19T10:29:18.483Z,42.14
2019-02-19T11:06:39.588Z,40.22
2019-02-19T11:07:21.287Z,39.16
2019-02-19T11:08:04.426Z,38.59
2019-02-19T11:08:46.869Z,38.97
2019-02-19T11:09:31.287Z,38.97
2019-02-19T11:10:13.520Z,39.36
2019-02-19T11:10:53.679Z,40.12
2019-02-19T11:11:35.842Z,39.06
2019-02-19T11:12:17.407Z,38.1
2019-02-19T11:12:58.610Z,38.95
2019-02-19T11:13:43.008Z,38.93
2019-02-19T11:14:25.151Z,40.28
2019-02-19T11:15:07.625Z,40.37
2019-02-19T11:15:51.828Z,40.08
2019-02-19T11:16:34.337Z,40.47
2019-02-19T11:17:14.876Z,41.55
2019-02-19T11:17:56.056Z,41.26
2019-02-19T11:18:43.452Z,41.06
2019-02-19T11:19:24.729Z,40.01
2019-02-19T11:20:04.871Z,39.14
2019-02-19T11:20:45.999Z,38.47
2019-02-19T11:21:32.315Z,39.24
2019-02-19T11:22:14.338Z,40.08
2019-02-19T11:22:59.316Z,39.99
2019-02-19T11:23:43.917Z,40.85
2019-02-19T11:24:26.374Z,41.16
2019-02-19T11:25:08.693Z,40.2
2019-02-19T11:27:06.765Z,39.45
2019-02-19T11:28:03.753Z,39.36
2019-02-19T11:28:44.462Z,39.45
2019-02-19T11:29:24.656Z,40.03
2019-02-19T11:30:07.875Z,38.49
2019-02-19T11:30:48.380Z,39.26
2019-02-19T11:31:28.908Z,39.36
2019-02-19T11:32:13.032Z,40.05
2019-02-19T11:32:56.911Z,38.31
2019-02-19T11:33:37.271Z,37.74
2019-02-19T11:34:18.999Z,38.41
2019-02-19T11:35:00.242Z,38.02
2019-02-19T11:35:40.975Z,38.12
2019-02-19T11:36:21.724Z,38.24
2019-02-19T11:37:03.326Z,37.18
2019-02-19T11:37:45.388Z,37.18
2019-02-19T11:38:25.998Z,37.76
2019-02-19T11:39:07.898Z,37.68
2019-02-19T11:39:48.284Z,36.71
2019-02-19T11:40:33.226Z,37.19
2019-02-19T11:41:16.292Z,37.19
2019-02-19T11:41:57.167Z,36.81
2019-02-19T11:42:43.877Z,37.19
2019-02-19T11:43:24.895Z,36.83
2019-02-19T11:44:05.404Z,35.67
2019-02-19T11:44:46.846Z,35.36
2019-02-19T11:45:28.176Z,35.85
2019-02-19T11:46:08.948Z,36.15
2019-02-19T11:46:49.118Z,36.06
2019-02-19T11:47:29.534Z,35.19
2019-02-19T11:48:15.802Z,35.19
2019-02-19T11:48:58.385Z,35.85
2019-02-19T11:49:38.814Z,35.48
2019-02-19T11:50:19.254Z,35.96
2019-02-19T11:50:59.661Z,35.96
2019-02-19T11:51:45.189Z,35.38
2019-02-19T11:52:27.259Z,35.28
2019-02-19T11:53:09.282Z,35.19
2019-02-19T11:53:52.085Z,35.48
2019-02-19T11:54:33.259Z,36.06
2019-02-19T11:55:13.852Z,34.88
2019-02-19T11:55:55.195Z,35.17
2019-02-19T11:56:37.331Z,35.46
2019-02-19T11:57:21.330Z,35.25
2019-02-19T11:58:06.305Z,35.93
2019-02-19T12:03:06.711Z,35.17
2019-02-19T12:15:19.307Z,36.58
2019-02-19T12:15:55.919Z,36.68
2019-02-19T12:16:38.126Z,36.39
2019-02-19T12:17:20.113Z,36.68
2019-02-19T12:18:00.901Z,36.87
2019-02-19T12:18:46.064Z,36.58
2019-02-19T12:19:24.418Z,36.76
2019-02-19T12:20:05.209Z,37.14
2019-02-19T12:20:46.315Z,37.04
2019-02-19T12:21:27.896Z,37.12
2019-02-19T12:22:09.260Z,37.6
2019-02-19T12:22:50.085Z,37.22
2019-02-19T12:23:34.208Z,36.93
2019-02-19T12:24:14.476Z,37.79
2019-02-19T12:24:59.450Z,37.6
2019-02-19T12:25:42.360Z,38.64
2019-02-19T12:26:30.900Z,38.64
2019-02-19T12:27:23.124Z,38.66
2019-02-19T12:31:14.478Z,38.07
2019-02-19T12:31:59.353Z,38.26
2019-02-19T12:32:39.827Z,39.31
2019-02-19T12:33:24.485Z,38.93
2019-02-19T12:34:04.922Z,38.35
2019-02-19T12:34:45.356Z,38.64
2019-02-19T12:35:26.953Z,38.84
2019-02-19T12:36:15.309Z,38.16
2019-02-19T12:36:55.816Z,37.97
2019-02-19T12:37:40.803Z,38.64
2019-02-19T12:38:25.930Z,38.26
2019-02-19T12:39:08.272Z,37.97
2019-02-19T12:39:50.103Z,38.54
2019-02-19T12:40:30.881Z,38.37
2019-02-19T12:41:12.149Z,37.99
2019-02-19T12:41:54.835Z,37.89
2019-02-19T12:42:37.439Z,37.6
2019-02-19T12:43:21.309Z,37.99
2019-02-19T12:44:02.395Z,37.6
2019-02-19T12:44:43.552Z,37.7
2019-02-19T12:45:25.808Z,37.6
2019-02-19T12:46:09.246Z,37.89
2019-02-19T12:46:51.190Z,37.99
2019-02-19T12:47:37.121Z,38.64
2019-02-19T12:48:17.782Z,38.95
2019-02-19T12:49:03.907Z,38.37
2019-02-19T12:49:44.369Z,38.64
2019-02-19T12:50:25.438Z,38.95
2019-02-19T12:51:06.222Z,38.85
2019-02-19T12:51:49.659Z,38.76
2019-02-19T12:52:32.300Z,38.66
2019-02-19T12:56:26.706Z,39.78
2019-02-19T12:57:07.404Z,40.18
2019-02-19T12:57:49.924Z,40.16
2019-02-19T12:58:31.447Z,39.87
2019-02-19T12:59:14.547Z,39.87
2019-02-19T12:59:58.253Z,40.25
2019-02-19T13:00:38.681Z,40.16
2019-02-19T13:07:15.319Z,43.48
2019-02-19T13:07:58.838Z,43.07
2019-02-19T13:08:39.817Z,43.17
2019-02-19T13:09:22.510Z,43.17
2019-02-19T13:10:22.707Z,44.03
2019-02-19T13:11:07.261Z,44.32
2019-02-19T13:11:51.064Z,44.13
2019-02-19T13:12:35.386Z,44.01
2019-02-19T13:13:17.446Z,44.87
2019-02-19T13:13:58.223Z,44.78
2019-02-19T13:14:45.075Z,44.59
2019-02-19T13:15:27.216Z,45
2019-02-19T13:16:10.923Z,44.78
2019-02-19T13:16:58.905Z,44.4
2019-02-19T13:17:42.144Z,45.07
2019-02-19T13:18:23.231Z,45.36
2019-02-19T13:19:05.013Z,45.36
2019-02-19T13:19:49.893Z,45.14
2019-02-19T13:20:45.423Z,45.45
2019-02-19T13:21:33.870Z,44.68
2019-02-19T13:22:17.162Z,44.68
2019-02-19T13:23:20.553Z,43.99
2019-02-19T13:24:05.865Z,44.2
2019-02-19T13:24:51.944Z,43.44
2019-02-19T13:25:33.767Z,43.44
2019-02-19T13:26:24.534Z,44.2
2019-02-19T13:27:09.850Z,44.23
2019-02-19T13:27:55.866Z,44.03
2019-02-19T13:28:38.278Z,44.13
2019-02-19T13:29:23.968Z,43.65
2019-02-19T13:30:07.546Z,43.38
2019-02-19T13:30:49.336Z,43.38
2019-02-19T13:31:32.829Z,42.81
2019-02-19T13:32:21.080Z,43.1
2019-02-19T13:33:09.052Z,42.9
2019-02-19T13:38:26.528Z,43.91
2019-02-19T13:41:13.678Z,44.11
2019-02-19T13:41:55.868Z,43.91
2019-02-19T13:42:36.996Z,44.3
2019-02-19T13:43:18.583Z,44.87
2019-02-19T13:43:59.644Z,44.68